createdAt,value
2022-08-05T00:01:35.532Z,10.35
2022-08-05T00:04:05.187Z,9.30
2022-08-05T00:06:36.405Z,10.27
2022-08-05T00:09:13.046Z,11.70
2022-08-05T00:11:48.325Z,11.38
2022-08-05T00:14:17.719Z,9.07
2022-08-05T00:16:52.984Z,12.93
2022-08-05T00:19:23.278Z,9.32
2022-08-05T00:21:54.064Z,9.25
2022-08-05T00:24:24.554Z,9.23
2022-08-05T00:26:53.475Z,9.07
2022-08-05T00:29:22.587Z,10.02
2022-08-05T00:32:10.278Z,11.68
2022-08-05T00:37:24.700Z,12.00
2022-08-05T00:39:58.114Z,9.43
2022-08-05T00:42:39.821Z,12.73
2022-08-05T00:45:11.611Z,11.50
2022-08-05T00:47:56.528Z,10.85
2022-08-05T00:50:25.332Z,9.70
2022-08-05T00:52:55.049Z,10.07
2022-08-05T00:55:34.047Z,10.57
2022-08-05T01:00:42.221Z,9.48
2022-08-05T01:03:22.391Z,9.65
2022-08-05T01:05:51.814Z,8.27
2022-08-05T01:08:40.760Z,12.50
2022-08-05T01:11:37.000Z,9.20
2022-08-05T01:14:32.953Z,6.75
2022-08-05T01:17:25.838Z,9.18
2022-08-05T01:20:27.613Z,9.68
2022-08-05T01:23:45.913Z,7.57
2022-08-05T01:27:19.505Z,7.45
2022-08-05T01:30:03.357Z,10.27
2022-08-05T01:32:39.012Z,7.75
2022-08-05T01:35:51.240Z,10.00
2022-08-05T01:38:07.027Z,8.48
2022-08-05T01:40:35.311Z,9.15
2022-08-05T01:43:04.189Z,6.03
2022-08-05T01:45:34.706Z,6.70
2022-08-05T01:48:04.228Z,9.75
2022-08-05T01:50:41.599Z,8.57
2022-08-05T01:53:58.126Z,13.60
2022-08-05T01:58:10.294Z,12.90
2022-08-05T01:59:08.744Z,8.65
2022-08-05T02:01:39.816Z,8.00
2022-08-05T02:04:11.039Z,13.23
2022-08-05T02:06:39.571Z,7.70
2022-08-05T02:09:08.283Z,13.57
2022-08-05T02:11:55.548Z,7.18
2022-08-05T02:18:31.343Z,7.40
2022-08-05T02:20:58.755Z,7.97
2022-08-05T02:23:35.730Z,14.38
2022-08-05T02:28:45.729Z,7.43
2022-08-05T02:31:26.678Z,11.73
2022-08-05T02:34:04.857Z,9.10
2022-08-05T02:39:10.240Z,12.50
2022-08-05T02:41:57.615Z,8.88
2022-08-05T02:44:29.224Z,8.23
2022-08-05T02:47:00.959Z,9.32
2022-08-05T02:49:37.707Z,12.48
2022-08-05T02:52:30.671Z,8.38
2022-08-05T02:55:05.584Z,9.40
2022-08-05T02:58:10.102Z,9.77
2022-08-05T03:00:29.972Z,15.35
2022-08-05T03:02:58.734Z,10.45
2022-08-05T03:06:56.816Z,7.47
2022-08-05T03:08:16.596Z,10.98
2022-08-05T03:11:54.329Z,8.85
2022-08-05T03:16:22.486Z,7.35
2022-08-05T03:18:50.116Z,7.95
2022-08-05T03:21:17.490Z,7.78
2022-08-05T03:23:45.634Z,7.35
2022-08-05T03:26:30.928Z,8.63
2022-08-05T03:29:00.757Z,8.73
2022-08-05T03:31:55.791Z,7.35
2022-08-05T03:34:17.969Z,8.38
2022-08-05T03:36:45.890Z,8.48
2022-08-05T03:39:26.670Z,9.90
2022-08-05T03:41:56.252Z,10.32
2022-08-05T03:44:25.413Z,8.23
2022-08-05T03:46:56.679Z,9.57
2022-08-05T03:49:24.062Z,8.75
2022-08-05T03:52:37.259Z,14.93
2022-08-05T03:58:00.777Z,8.55
2022-08-05T04:00:32.196Z,10.20
2022-08-05T04:03:04.659Z,12.57
2022-08-05T04:05:36.302Z,9.80
2022-08-05T04:08:29.750Z,11.13
2022-08-05T04:11:03.221Z,16.48
2022-08-05T04:13:50.137Z,16.63
2022-08-05T04:16:24.287Z,12.15
2022-08-05T04:18:54.752Z,10.55
2022-08-05T04:22:08.748Z,13.23
2022-08-05T04:26:47.290Z,9.77
2022-08-05T04:29:14.526Z,11.43
2022-08-05T04:31:43.026Z,9.10
2022-08-05T04:34:19.010Z,11.40
2022-08-05T04:36:58.378Z,12.73
2022-08-05T04:39:25.717Z,8.38
2022-08-05T04:41:55.559Z,11.63
2022-08-05T04:44:30.217Z,8.27
2022-08-05T04:46:59.709Z,9.35
2022-08-05T04:49:38.965Z,11.20
2022-08-05T04:52:16.520Z,10.20
2022-08-05T04:54:44.009Z,12.15
2022-08-05T04:57:11.237Z,12.50
2022-08-05T04:59:40.843Z,11.20
2022-08-05T05:02:36.741Z,10.50
2022-08-05T05:05:02.264Z,12.85
2022-08-05T05:07:35.256Z,10.38
2022-08-05T05:10:06.301Z,8.68
2022-08-05T05:12:34.009Z,9.07
2022-08-05T05:15:06.073Z,10.23
2022-08-05T05:17:57.128Z,8.52
2022-08-05T05:20:28.753Z,12.27
2022-08-05T05:23:08.473Z,13.77
2022-08-05T05:25:47.854Z,8.90
2022-08-05T05:28:15.142Z,17.92
2022-08-05T05:30:42.977Z,9.30
2022-08-05T05:33:17.696Z,11.60
2022-08-05T05:35:50.707Z,9.98
2022-08-05T05:38:26.852Z,9.80
2022-08-05T05:40:57.053Z,10.32
2022-08-05T05:43:56.477Z,8.98
2022-08-05T05:46:17.768Z,10.68
2022-08-05T05:48:47.992Z,14.13
2022-08-05T05:51:24.726Z,12.60
2022-08-05T05:53:58.832Z,10.13
2022-08-05T05:56:34.420Z,9.05
2022-08-05T05:59:07.776Z,8.85
2022-08-05T06:01:57.809Z,10.63
2022-08-05T06:04:25.676Z,9.32
2022-08-05T06:06:52.885Z,8.05
2022-08-05T06:09:35.356Z,10.98
2022-08-05T06:12:09.716Z,11.35
2022-08-05T06:14:40.184Z,10.32
2022-08-05T06:17:22.109Z,14.60
2022-08-05T06:19:57.162Z,11.15
2022-08-05T06:22:34.394Z,10.90
2022-08-05T06:25:24.597Z,16.52
2022-08-05T06:28:11.467Z,8.25
2022-08-05T06:30:39.343Z,9.48
2022-08-05T06:33:10.028Z,8.50
2022-08-05T06:36:07.469Z,10.20
2022-08-05T06:38:36.721Z,8.80
2022-08-05T06:41:08.166Z,9.07
2022-08-05T06:43:59.115Z,12.23
2022-08-05T06:46:30.418Z,11.25
2022-08-05T06:49:00.794Z,9.93
2022-08-05T06:51:31.054Z,8.32
2022-08-05T06:54:01.977Z,11.10
2022-08-05T06:56:34.680Z,9.13
2022-08-05T06:59:09.562Z,10.25
2022-08-05T07:01:40.800Z,9.27
2022-08-05T07:04:09.609Z,12.82
2022-08-05T07:06:37.210Z,12.40
2022-08-05T07:09:05.382Z,13.05
2022-08-05T07:11:37.278Z,10.00
2022-08-05T07:14:29.513Z,9.07
2022-08-05T07:18:00.014Z,8.95
2022-08-05T07:20:32.272Z,9.35
2022-08-05T07:22:38.999Z,10.43
2022-08-05T07:25:23.058Z,10.32
2022-08-05T07:28:02.307Z,5.60
2022-08-05T07:30:38.884Z,11.98
2022-08-05T07:33:16.007Z,10.55
2022-08-05T07:36:02.938Z,11.10
2022-08-05T07:38:42.946Z,10.27
2022-08-05T07:42:07.843Z,8.40
2022-08-05T07:44:12.143Z,8.32
2022-08-05T07:46:41.929Z,7.03
2022-08-05T07:49:15.589Z,7.25
2022-08-05T07:51:53.355Z,8.65
2022-08-05T07:54:31.207Z,8.57
2022-08-05T07:57:17.695Z,4.50
2022-08-05T07:59:51.831Z,4.20
2022-08-05T08:02:26.691Z,6.38
2022-08-05T08:04:59.416Z,5.63
2022-08-05T08:07:28.503Z,4.72
2022-08-05T08:09:56.107Z,6.38
2022-08-05T08:12:35.674Z,6.43
2022-08-05T08:15:15.842Z,6.07
2022-08-05T08:17:50.780Z,6.18
2022-08-05T08:21:00.144Z,5.82
2022-08-05T08:24:00.969Z,6.63
2022-08-05T08:26:02.783Z,5.90
2022-08-05T08:28:35.672Z,4.60
2022-08-05T08:31:06.915Z,4.13
2022-08-05T08:33:37.564Z,4.32
2022-08-05T08:38:56.814Z,6.95
2022-08-05T08:41:51.398Z,4.75
2022-08-05T08:45:17.948Z,5.18
2022-08-05T08:47:47.750Z,4.85
2022-08-05T08:50:22.916Z,4.85
2022-08-05T08:53:03.433Z,4.90
2022-08-05T08:56:02.632Z,7.25
2022-08-05T08:58:37.659Z,5.65
2022-08-05T09:01:15.838Z,7.18
2022-08-05T09:03:54.421Z,4.60
2022-08-05T09:06:30.629Z,5.97
2022-08-05T09:09:03.145Z,4.97
2022-08-05T09:11:53.411Z,6.95
2022-08-05T09:14:56.989Z,5.13
2022-08-05T09:17:40.289Z,6.72
2022-08-05T09:20:05.709Z,4.82
2022-08-05T09:23:19.028Z,5.15
2022-08-05T09:26:06.220Z,4.00
2022-08-05T09:28:37.426Z,4.82
2022-08-05T09:31:43.534Z,3.83
2022-08-05T09:36:56.257Z,6.93
2022-08-05T09:39:44.761Z,5.13
2022-08-05T09:42:23.182Z,5.13
2022-08-05T09:45:03.126Z,3.83
2022-08-05T09:47:49.018Z,8.00
2022-08-05T09:50:43.730Z,3.38
2022-08-05T09:53:22.994Z,3.00
2022-08-05T09:56:03.940Z,2.50
2022-08-05T09:58:32.470Z,4.60
2022-08-05T10:01:15.329Z,4.93
2022-08-05T10:04:18.466Z,6.00
2022-08-05T10:06:59.501Z,3.20
2022-08-05T10:09:29.968Z,2.55
2022-08-05T10:12:18.466Z,4.03
2022-08-05T10:15:38.645Z,4.18
2022-08-05T10:18:22.756Z,2.20
2022-08-05T10:21:11.771Z,2.47
2022-08-05T10:24:00.032Z,2.90
2022-08-05T10:26:32.667Z,4.85
2022-08-05T10:29:01.273Z,4.97
2022-08-05T10:32:54.653Z,2.13
2022-08-05T10:34:16.976Z,3.25
2022-08-05T10:36:46.133Z,5.57
2022-08-05T10:39:59.088Z,2.42
2022-08-05T10:42:33.568Z,2.63
2022-08-05T10:45:21.284Z,3.40
2022-08-05T10:48:29.174Z,2.30
2022-08-05T10:51:21.705Z,1.38
2022-08-05T10:54:05.701Z,2.10
2022-08-05T10:56:55.885Z,2.45
2022-08-05T11:00:04.362Z,1.25
2022-08-05T11:02:37.516Z,2.88
2022-08-05T11:05:10.717Z,2.20
2022-08-05T11:08:34.088Z,3.22
2022-08-05T11:11:52.382Z,1.55
2022-08-05T11:17:58.950Z,3.08
2022-08-05T11:20:51.024Z,2.13
2022-08-05T11:24:04.528Z,2.13
2022-08-05T11:26:33.849Z,1.90
2022-08-05T11:29:13.801Z,2.97
2022-08-05T11:31:57.004Z,3.10
2022-08-05T11:34:57.260Z,3.40
2022-08-05T11:38:30.693Z,4.47
2022-08-05T11:41:34.702Z,2.53
2022-08-05T11:44:40.182Z,2.33
2022-08-05T11:47:13.986Z,4.00
2022-08-05T11:49:49.847Z,1.98
2022-08-05T11:52:30.974Z,5.35
2022-08-05T11:55:07.555Z,3.20
2022-08-05T11:58:07.871Z,4.43
2022-08-05T12:00:32.115Z,2.22
2022-08-05T12:03:28.710Z,2.65
2022-08-05T12:06:06.193Z,3.65
2022-08-05T12:08:55.792Z,2.33
2022-08-05T12:11:40.143Z,2.30
2022-08-05T12:14:10.219Z,8.30
2022-08-05T12:16:45.160Z,3.33
2022-08-05T12:20:26.027Z,2.85
2022-08-05T12:22:01.680Z,3.53
2022-08-05T12:24:30.013Z,1.58
2022-08-05T12:26:57.760Z,3.17
2022-08-05T12:29:29.111Z,2.42
2022-08-05T12:32:07.407Z,3.20
2022-08-05T12:34:38.454Z,4.50
2022-08-05T12:37:16.263Z,2.33
2022-08-05T12:39:51.150Z,2.83
2022-08-05T12:42:21.464Z,2.30
2022-08-05T12:44:52.668Z,3.63
2022-08-05T12:47:31.086Z,3.25
2022-08-05T12:50:04.071Z,4.05
2022-08-05T12:52:39.646Z,3.58
2022-08-05T12:55:25.791Z,11.73
2022-08-05T12:58:49.756Z,6.88
2022-08-05T13:02:01.665Z,2.50
2022-08-05T13:03:42.351Z,4.28
2022-08-05T13:08:52.212Z,2.65
2022-08-05T13:12:02.150Z,2.10
2022-08-05T13:14:35.985Z,1.42
2022-08-05T13:17:10.890Z,1.73
2022-08-05T13:19:40.363Z,2.67
2022-08-05T13:22:27.719Z,2.00
2022-08-05T13:25:00.715Z,3.28
2022-08-05T13:27:39.813Z,7.40
2022-08-05T13:30:35.314Z,2.38
2022-08-05T13:33:03.791Z,2.10
2022-08-05T13:35:42.766Z,1.85
2022-08-05T13:38:28.328Z,2.88
2022-08-05T13:41:00.440Z,3.22
2022-08-05T13:43:45.549Z,1.67
2022-08-05T13:46:30.836Z,1.58
2022-08-05T13:49:09.879Z,2.60
2022-08-05T13:51:40.921Z,3.33
2022-08-05T13:54:15.184Z,2.20
2022-08-05T13:56:50.526Z,2.72
2022-08-05T14:01:59.068Z,2.97
2022-08-05T14:05:00.673Z,2.47
2022-08-05T14:07:59.994Z,2.22
2022-08-05T14:10:30.656Z,4.57
2022-08-05T14:12:59.370Z,2.30
2022-08-05T14:16:08.114Z,1.52
2022-08-05T14:18:19.533Z,2.30
2022-08-05T14:20:55.105Z,2.38
2022-08-05T14:23:25.592Z,4.15
2022-08-05T14:25:58.763Z,8.48
2022-08-05T14:28:30.908Z,1.88
2022-08-05T14:31:00.902Z,1.98
2022-08-05T14:33:56.676Z,4.07
2022-08-05T14:36:21.301Z,2.10
2022-08-05T14:38:51.539Z,2.88
2022-08-05T14:41:19.394Z,3.38
2022-08-05T14:43:59.127Z,3.13
2022-08-05T14:46:31.378Z,1.60
2022-08-05T14:49:06.586Z,5.15
2022-08-05T14:51:42.541Z,4.75
2022-08-05T14:54:28.854Z,2.55
2022-08-05T14:56:59.235Z,2.75
2022-08-05T14:59:29.491Z,1.75
2022-08-05T15:02:14.819Z,5.05
2022-08-05T15:04:43.814Z,3.58
2022-08-05T15:08:06.256Z,2.10
2022-08-05T15:10:01.274Z,4.85
2022-08-05T15:12:40.937Z,3.35
2022-08-05T15:15:16.375Z,1.92
2022-08-05T15:17:46.323Z,5.32
2022-08-05T15:20:24.617Z,2.28
2022-08-05T15:22:55.109Z,4.63
2022-08-05T15:25:52.812Z,1.73
2022-08-05T15:28:15.652Z,3.20
2022-08-05T15:30:46.457Z,2.38
2022-08-05T15:34:04.030Z,3.20
2022-08-05T15:36:05.565Z,2.63
2022-08-05T15:38:41.865Z,1.38
2022-08-05T15:41:22.322Z,3.63
2022-08-05T15:43:54.889Z,3.20
2022-08-05T15:46:24.806Z,1.75
2022-08-05T15:48:58.961Z,2.35
2022-08-05T15:52:10.343Z,2.53
2022-08-05T15:54:17.788Z,1.27
2022-08-05T15:56:45.018Z,1.80
2022-08-05T15:59:20.214Z,2.55
2022-08-05T16:01:52.956Z,2.63
2022-08-05T16:04:25.348Z,2.53
2022-08-05T16:06:55.533Z,2.08
2022-08-05T16:09:24.978Z,3.53
2022-08-05T16:11:54.334Z,2.15
2022-08-05T16:14:23.215Z,2.83
2022-08-05T16:16:50.963Z,4.13
2022-08-05T16:19:25.538Z,3.40
2022-08-05T16:22:07.611Z,2.25
2022-08-05T16:24:41.824Z,4.38
2022-08-05T16:27:19.600Z,1.88
2022-08-05T16:30:08.428Z,2.47
2022-08-05T16:32:50.950Z,2.25
2022-08-05T16:35:18.208Z,2.35
2022-08-05T16:38:02.322Z,4.68
2022-08-05T16:40:32.934Z,3.53
2022-08-05T16:43:00.328Z,2.58
2022-08-05T16:46:04.521Z,2.78
2022-08-05T16:48:25.606Z,5.05
2022-08-05T16:51:00.337Z,4.93
2022-08-05T16:53:31.857Z,4.20
2022-08-05T16:56:00.158Z,3.28
2022-08-05T16:58:27.349Z,2.55
2022-08-05T17:00:55.289Z,3.80
2022-08-05T17:03:22.770Z,3.47
2022-08-05T17:05:54.014Z,4.60
2022-08-05T17:08:36.409Z,2.60
2022-08-05T17:11:16.895Z,2.97
2022-08-05T17:13:46.209Z,4.97
2022-08-05T17:16:33.018Z,4.00
2022-08-05T17:19:01.682Z,3.17
2022-08-05T17:21:35.311Z,4.68
2022-08-05T17:24:28.055Z,2.42
2022-08-05T17:26:57.929Z,5.28
2022-08-05T17:29:33.428Z,6.25
2022-08-05T17:32:11.381Z,5.10
2022-08-05T17:34:44.882Z,3.55
2022-08-05T17:37:40.721Z,3.83
2022-08-05T17:40:14.238Z,5.07
2022-08-05T17:42:51.169Z,2.28
2022-08-05T17:45:29.483Z,4.10
2022-08-05T17:48:07.820Z,5.97
2022-08-05T17:50:35.292Z,2.92
2022-08-05T17:53:08.333Z,2.88
2022-08-05T17:55:38.803Z,3.60
2022-08-05T17:58:12.385Z,3.35
2022-08-05T18:00:47.699Z,2.42
2022-08-05T18:03:48.337Z,3.45
2022-08-05T18:06:12.045Z,3.10
2022-08-05T18:08:52.358Z,2.70
2022-08-05T18:11:24.456Z,2.72
2022-08-05T18:14:04.365Z,2.65
2022-08-05T18:16:51.116Z,4.00
2022-08-05T18:19:23.045Z,3.25
2022-08-05T18:22:09.568Z,4.63
2022-08-05T18:24:40.052Z,4.72
2022-08-05T18:27:12.301Z,3.50
2022-08-05T18:29:41.464Z,7.25
2022-08-05T18:32:12.946Z,5.22
2022-08-05T18:34:42.930Z,2.90
2022-08-05T18:37:12.264Z,2.08
2022-08-05T18:40:29.743Z,3.63
2022-08-05T18:44:56.606Z,4.78
2022-08-05T18:47:26.365Z,3.42
2022-08-05T18:50:15.455Z,4.07
2022-08-05T18:52:51.093Z,4.60
2022-08-05T18:55:21.644Z,4.00
2022-08-05T18:57:53.271Z,4.57
2022-08-05T19:00:27.212Z,2.90
2022-08-05T19:03:03.287Z,3.45
2022-08-05T19:06:11.758Z,2.80
2022-08-05T19:08:18.808Z,3.47
2022-08-05T19:10:46.325Z,6.28
2022-08-05T19:13:15.890Z,3.78
2022-08-05T19:15:59.271Z,3.55
2022-08-05T19:18:28.872Z,7.88
2022-08-05T19:20:56.513Z,4.68
2022-08-05T19:24:07.773Z,4.15
2022-08-05T19:28:44.065Z,4.13
2022-08-05T19:31:13.141Z,4.15
2022-08-05T19:33:48.261Z,4.85
2022-08-05T19:36:29.304Z,5.47
2022-08-05T19:39:01.571Z,6.25
2022-08-05T19:41:58.323Z,7.25
2022-08-05T19:44:19.584Z,5.72
2022-08-05T19:46:47.342Z,4.80
2022-08-05T19:49:18.121Z,5.53
2022-08-05T19:52:04.733Z,6.25
2022-08-05T19:54:35.698Z,5.25
2022-08-05T19:57:09.500Z,5.53
2022-08-05T20:00:00.198Z,5.97
2022-08-05T20:02:31.346Z,7.40
2022-08-05T20:04:59.974Z,6.32
2022-08-05T20:07:45.816Z,4.82
2022-08-05T20:10:19.468Z,4.05
2022-08-05T20:12:49.742Z,4.95
2022-08-05T20:15:23.364Z,3.95
2022-08-05T20:18:10.973Z,5.00
2022-08-05T20:20:57.164Z,4.05
2022-08-05T20:23:39.960Z,5.55
2022-08-05T20:26:15.288Z,3.80
2022-08-05T20:28:55.619Z,4.82
2022-08-05T20:31:42.123Z,4.75
2022-08-05T20:34:15.546Z,3.22
2022-08-05T20:36:43.216Z,5.30
2022-08-05T20:39:16.349Z,6.22
2022-08-05T20:41:45.296Z,5.07
2022-08-05T20:44:29.910Z,7.00
2022-08-05T20:47:04.883Z,6.75
2022-08-05T20:49:39.276Z,4.00
2022-08-05T20:52:08.900Z,7.50
2022-08-05T20:54:42.847Z,6.78
2022-08-05T20:57:42.715Z,5.75
2022-08-05T21:00:41.204Z,5.03
2022-08-05T21:03:06.866Z,5.78
2022-08-05T21:05:53.390Z,7.00
2022-08-05T21:11:12.566Z,4.55
2022-08-05T21:13:47.909Z,5.38
2022-08-05T21:16:30.317Z,5.25
2022-08-05T21:19:01.933Z,4.38
2022-08-05T21:21:44.170Z,7.57
2022-08-05T21:24:19.694Z,5.38
2022-08-05T21:26:57.844Z,9.52
2022-08-05T21:29:31.931Z,5.57
2022-08-05T21:32:04.350Z,10.40
2022-08-05T21:34:33.055Z,7.28
2022-08-05T21:37:02.870Z,4.55
2022-08-05T21:39:30.834Z,10.88
2022-08-05T21:42:02.457Z,6.30
2022-08-05T21:44:31.763Z,6.43
2022-08-05T21:47:00.210Z,6.43
2022-08-05T21:49:48.501Z,9.07
2022-08-05T21:52:27.060Z,5.88
2022-08-05T21:54:57.790Z,4.97
2022-08-05T21:57:34.924Z,7.43
2022-08-05T22:00:11.167Z,8.20
2022-08-05T22:02:42.912Z,6.82
2022-08-05T22:05:13.086Z,8.15
2022-08-05T22:07:59.190Z,7.75
2022-08-05T22:10:28.110Z,7.68
2022-08-05T22:12:58.899Z,7.57
2022-08-05T22:16:00.341Z,9.93
2022-08-05T22:18:25.740Z,5.03
2022-08-05T22:20:53.734Z,6.28
2022-08-05T22:24:01.900Z,11.07
2022-08-05T22:26:50.559Z,5.15
2022-08-05T22:29:26.482Z,6.53
2022-08-05T22:31:55.352Z,6.43
2022-08-05T22:34:29.064Z,6.68
2022-08-05T22:36:58.723Z,5.82
2022-08-05T22:39:32.957Z,9.68
2022-08-05T22:42:11.799Z,6.72
2022-08-05T22:44:42.746Z,5.90
2022-08-05T22:47:29.684Z,6.20
2022-08-05T22:50:21.720Z,7.95
2022-08-05T22:52:52.692Z,4.95
2022-08-05T22:55:22.642Z,11.38
2022-08-05T22:57:53.477Z,7.20
2022-08-05T23:00:24.485Z,5.07
2022-08-05T23:02:54.098Z,7.45
2022-08-05T23:05:22.715Z,7.15
2022-08-05T23:07:51.633Z,9.32
2022-08-05T23:10:23.959Z,5.63
2022-08-05T23:12:55.255Z,5.28
2022-08-05T23:15:35.389Z,5.72
2022-08-05T23:18:06.064Z,5.30
2022-08-05T23:20:39.581Z,6.57
2022-08-05T23:23:08.198Z,9.63
2022-08-05T23:25:54.716Z,6.22
2022-08-05T23:28:29.268Z,8.00
2022-08-05T23:31:07.100Z,5.55
2022-08-05T23:34:04.605Z,7.60
2022-08-05T23:36:38.482Z,8.07
2022-08-05T23:39:08.009Z,7.05
2022-08-05T23:41:40.891Z,7.57
2022-08-05T23:44:08.974Z,5.82
2022-08-05T23:46:37.512Z,11.02
2022-08-05T23:49:17.100Z,11.00
2022-08-05T23:52:08.418Z,8.30
2022-08-05T23:54:38.615Z,8.07
2022-08-05T23:57:07.708Z,6.72
